createdAt,value
2023-04-07T00:00:09.760Z,1009.11
2023-04-07T00:00:43.190Z,1009.11
2023-04-07T00:01:11.985Z,1009.04
2023-04-07T00:01:35.443Z,1009.11
2023-04-07T00:01:57.811Z,1009.11
2023-04-07T00:02:32.158Z,1009.11
2023-04-07T00:03:04.071Z,1009.04
2023-04-07T00:03:36.202Z,1009.04
2023-04-07T00:04:13.586Z,1009.04
2023-04-07T00:04:39.882Z,1009.04
2023-04-07T00:05:12.000Z,1009.21
2023-04-07T00:05:35.968Z,1009.11
2023-04-07T00:05:58.495Z,1009.11
2023-04-07T00:06:31.920Z,1009.11
2023-04-07T00:07:03.948Z,1009.11
2023-04-07T00:07:39.643Z,1009.11
2023-04-07T00:08:08.505Z,1009.11
2023-04-07T00:08:39.994Z,1009.11
2023-04-07T00:09:11.958Z,1008.94
2023-04-07T00:09:34.735Z,1009.04
2023-04-07T00:09:57.282Z,1009.04
2023-04-07T00:10:31.944Z,1009.04
2023-04-07T00:11:03.961Z,1009.11
2023-04-07T00:11:36.071Z,1009.11
2023-04-07T00:12:07.921Z,1009.04
2023-04-07T00:12:40.208Z,1009.04
2023-04-07T00:13:11.875Z,1009.04
2023-04-07T00:13:34.969Z,1009.11
2023-04-07T00:13:58.749Z,1009.11
2023-04-07T00:14:32.058Z,1009.11
2023-04-07T00:15:04.137Z,1009.04
2023-04-07T00:15:36.035Z,1009.04
2023-04-07T00:16:08.080Z,1009.11
2023-04-07T00:16:39.950Z,1009.11
2023-04-07T00:17:12.072Z,1008.94
2023-04-07T00:17:35.683Z,1009.04
2023-04-07T00:17:58.074Z,1009.04
2023-04-07T00:18:32.018Z,1009.04
2023-04-07T00:19:03.980Z,1009.11
2023-04-07T00:19:33.756Z,1009.11
2023-04-07T00:20:08.178Z,1009.11
2023-04-07T00:20:39.933Z,1009.11
2023-04-07T00:21:12.461Z,1008.94
2023-04-07T00:21:38.455Z,1009.11
2023-04-07T00:21:58.721Z,1009.11
2023-04-07T00:22:32.393Z,1009.11
2023-04-07T00:23:04.036Z,1009.21
2023-04-07T00:23:36.434Z,1009.21
2023-04-07T00:24:08.027Z,1008.94
2023-04-07T00:24:40.091Z,1008.94
2023-04-07T00:25:12.016Z,1008.94
2023-04-07T00:25:36.412Z,1009.04
2023-04-07T00:25:57.288Z,1009.04
2023-04-07T00:26:32.234Z,1009.04
2023-04-07T00:27:04.121Z,1008.74
2023-04-07T00:27:35.986Z,1008.74
2023-04-07T00:28:07.889Z,1009.04
2023-04-07T00:28:41.352Z,1009.04
2023-04-07T00:29:12.388Z,1008.94
2023-04-07T00:29:35.135Z,1008.94
2023-04-07T00:29:57.388Z,1008.94
2023-04-07T00:30:32.076Z,1008.94
2023-04-07T00:31:03.916Z,1009.04
2023-04-07T00:31:36.042Z,1009.04
2023-04-07T00:32:08.067Z,1009.04
2023-04-07T00:32:41.496Z,1009.04
2023-04-07T00:33:13.354Z,1008.74
2023-04-07T00:33:34.698Z,1008.74
2023-04-07T00:33:57.297Z,1008.74
2023-04-07T00:34:32.429Z,1008.74
2023-04-07T00:35:03.954Z,1008.74
2023-04-07T00:35:35.946Z,1008.74
2023-04-07T00:36:07.891Z,1008.94
2023-04-07T00:36:39.941Z,1008.94
2023-04-07T00:37:11.800Z,1008.94
2023-04-07T00:37:34.723Z,1009.04
2023-04-07T00:37:56.909Z,1009.04
2023-04-07T00:38:31.966Z,1009.04
2023-04-07T00:39:03.933Z,1009.11
2023-04-07T00:39:36.051Z,1009.11
2023-04-07T00:40:07.997Z,1009.04
2023-04-07T00:40:39.873Z,1009.04
2023-04-07T00:41:11.968Z,1008.94
2023-04-07T00:41:34.980Z,1008.74
2023-04-07T00:41:57.387Z,1008.74
2023-04-07T00:42:31.995Z,1008.74
2023-04-07T00:43:03.839Z,1008.74
2023-04-07T00:43:36.123Z,1008.74
2023-04-07T00:44:08.400Z,1009.04
2023-04-07T00:44:40.109Z,1009.04
2023-04-07T00:45:12.012Z,1008.84
2023-04-07T00:45:35.735Z,1008.74
2023-04-07T00:45:58.024Z,1008.74
2023-04-07T00:46:32.014Z,1008.74
2023-04-07T00:47:04.091Z,1008.84
2023-04-07T00:47:35.933Z,1008.84
2023-04-07T00:48:07.876Z,1008.84
2023-04-07T00:48:39.931Z,1008.84
2023-04-07T00:49:11.820Z,1008.84
2023-04-07T00:49:34.595Z,1008.84
2023-04-07T00:49:56.969Z,1008.84
2023-04-07T00:50:31.903Z,1008.84
2023-04-07T00:51:03.876Z,1008.74
2023-04-07T00:51:35.936Z,1008.74
2023-04-07T00:52:07.907Z,1008.84
2023-04-07T00:52:39.889Z,1008.84
2023-04-07T00:53:11.912Z,1008.84
2023-04-07T00:53:34.649Z,1008.63
2023-04-07T00:53:57.222Z,1008.63
2023-04-07T00:54:31.880Z,1008.63
2023-04-07T00:55:04.081Z,1008.84
2023-04-07T00:55:35.853Z,1008.84
2023-04-07T00:56:07.939Z,1008.53
2023-04-07T00:56:40.953Z,1008.53
2023-04-07T00:57:11.900Z,1008.74
2023-04-07T00:57:34.859Z,1008.74
2023-04-07T00:57:57.150Z,1008.74
2023-04-07T00:58:31.827Z,1008.74
2023-04-07T00:59:03.898Z,1008.74
2023-04-07T00:59:41.748Z,1008.74
2023-04-07T01:00:08.246Z,1008.84
2023-04-07T01:00:40.050Z,1008.84
2023-04-07T01:01:11.924Z,1008.63
2023-04-07T01:01:34.753Z,1008.84
2023-04-07T01:01:57.141Z,1008.84
2023-04-07T01:02:32.583Z,1008.84
2023-04-07T01:03:04.099Z,1008.74
2023-04-07T01:03:36.369Z,1008.74
2023-04-07T01:04:13.668Z,1008.74
2023-04-07T01:04:40.227Z,1008.74
2023-04-07T01:05:11.802Z,1008.63
2023-04-07T01:05:34.519Z,1008.84
2023-04-07T01:05:57.130Z,1008.84
2023-04-07T01:06:31.892Z,1008.84
2023-04-07T01:07:03.832Z,1008.63
2023-04-07T01:07:35.859Z,1008.63
2023-04-07T01:08:07.958Z,1008.63
2023-04-07T01:08:40.250Z,1008.63
2023-04-07T01:09:07.673Z,1008.74
2023-04-07T01:09:39.654Z,1008.63
2023-04-07T01:10:16.234Z,1008.63
2023-04-07T01:10:38.632Z,1008.53
2023-04-07T01:11:01.307Z,1008.53
2023-04-07T01:11:37.934Z,1008.63
2023-04-07T01:12:08.164Z,1008.63
2023-04-07T01:12:40.488Z,1008.63
2023-04-07T01:13:12.501Z,1008.53
2023-04-07T01:13:34.968Z,1008.74
2023-04-07T01:13:57.815Z,1008.74
2023-04-07T01:14:33.635Z,1008.33
2023-04-07T01:15:04.466Z,1008.33
2023-04-07T01:15:36.402Z,1008.33
2023-04-07T01:16:08.273Z,1008.63
2023-04-07T01:16:40.110Z,1008.63
2023-04-07T01:17:12.129Z,1008.63
2023-04-07T01:17:34.870Z,1008.63
2023-04-07T01:17:57.196Z,1008.63
2023-04-07T01:18:32.712Z,1008.63
2023-04-07T01:19:04.080Z,1008.53
2023-04-07T01:19:34.080Z,1008.53
2023-04-07T01:20:08.586Z,1008.53
2023-04-07T01:20:40.502Z,1008.53
2023-04-07T01:21:12.364Z,1008.74
2023-04-07T01:21:38.452Z,1008.43
2023-04-07T01:21:57.492Z,1008.43
2023-04-07T01:22:33.395Z,1008.43
2023-04-07T01:23:04.902Z,1008.74
2023-04-07T01:23:36.817Z,1008.74
2023-04-07T01:24:10.095Z,1008.43
2023-04-07T01:24:40.065Z,1008.43
2023-04-07T01:25:13.356Z,1008.53
2023-04-07T01:25:37.665Z,1008.43
2023-04-07T01:25:59.946Z,1008.43
2023-04-07T01:26:32.760Z,1008.43
2023-04-07T01:27:03.910Z,1008.43
2023-04-07T01:27:37.723Z,1008.43
2023-04-07T01:28:08.248Z,1008.53
2023-04-07T01:28:40.876Z,1008.53
2023-04-07T01:29:11.875Z,1008.63
2023-04-07T01:29:34.597Z,1008.63
2023-04-07T01:29:57.314Z,1008.63
2023-04-07T01:30:32.049Z,1008.63
2023-04-07T01:31:04.279Z,1008.43
2023-04-07T01:31:36.744Z,1008.43
2023-04-07T01:32:08.295Z,1008.43
2023-04-07T01:32:39.807Z,1008.43
2023-04-07T01:33:11.969Z,1008.53
2023-04-07T01:33:36.595Z,1008.53
2023-04-07T01:33:57.490Z,1008.53
2023-04-07T01:34:32.623Z,1008.53
2023-04-07T01:35:04.174Z,1008.43
2023-04-07T01:35:36.019Z,1008.43
2023-04-07T01:36:08.282Z,1008.53
2023-04-07T01:36:41.392Z,1008.53
2023-04-07T01:37:12.381Z,1008.53
2023-04-07T01:37:34.946Z,1008.43
2023-04-07T01:37:57.996Z,1008.43
2023-04-07T01:38:31.882Z,1008.43
2023-04-07T01:39:04.697Z,1008.53
2023-04-07T01:39:37.588Z,1008.53
2023-04-07T01:40:08.816Z,1008.74
2023-04-07T01:40:40.022Z,1008.74
2023-04-07T01:41:11.942Z,1008.13
2023-04-07T01:41:34.620Z,1008.43
2023-04-07T01:41:57.110Z,1008.43
2023-04-07T01:42:34.184Z,1008.43
2023-04-07T01:43:04.165Z,1008.43
2023-04-07T01:43:36.047Z,1008.43
2023-04-07T01:44:08.935Z,1008.53
2023-04-07T01:44:40.662Z,1008.53
2023-04-07T01:45:12.011Z,1008.33
2023-04-07T01:45:34.492Z,1008.33
2023-04-07T01:45:57.151Z,1008.33
2023-04-07T01:46:32.082Z,1008.33
2023-04-07T01:47:04.303Z,1008.43
2023-04-07T01:47:36.221Z,1008.43
2023-04-07T01:48:08.408Z,1008.33
2023-04-07T01:48:39.900Z,1008.33
2023-04-07T01:49:11.976Z,1008.43
2023-04-07T01:49:34.663Z,1008.43
2023-04-07T01:49:57.391Z,1008.43
2023-04-07T01:50:32.038Z,1008.43
2023-04-07T01:51:03.929Z,1008.43
2023-04-07T01:51:36.146Z,1008.43
2023-04-07T01:52:07.917Z,1008.43
2023-04-07T01:52:40.113Z,1008.43
2023-04-07T01:53:11.943Z,1008.23
2023-04-07T01:53:34.702Z,1008.43
2023-04-07T01:53:57.972Z,1008.43
2023-04-07T01:54:31.993Z,1008.43
2023-04-07T01:55:04.735Z,1008.53
2023-04-07T01:55:36.650Z,1008.53
2023-04-07T01:56:13.973Z,1008.43
2023-04-07T01:56:40.388Z,1008.43
2023-04-07T01:57:11.900Z,1008.43
2023-04-07T01:57:35.178Z,1008.53
2023-04-07T01:57:59.898Z,1008.53
2023-04-07T01:58:32.744Z,1008.53
2023-04-07T01:59:04.458Z,1008.43
2023-04-07T01:59:36.161Z,1008.43
2023-04-07T02:00:08.854Z,1008.53
2023-04-07T02:00:46.556Z,1008.53
2023-04-07T02:01:12.670Z,1008.53
2023-04-07T02:01:39.503Z,1008.43
2023-04-07T02:02:16.347Z,1008.43
2023-04-07T02:02:38.818Z,1008.33
2023-04-07T02:03:01.761Z,1008.33
2023-04-07T02:03:36.539Z,1008.33
2023-04-07T02:04:09.312Z,1008.53
2023-04-07T02:04:40.029Z,1008.53
2023-04-07T02:05:11.877Z,1008.43
2023-04-07T02:05:34.775Z,1008.43
2023-04-07T02:05:59.567Z,1008.43
2023-04-07T02:06:31.911Z,1008.43
2023-04-07T02:07:03.948Z,1008.33
2023-04-07T02:07:35.957Z,1008.33
2023-04-07T02:08:08.109Z,1008.13
2023-04-07T02:08:40.185Z,1008.13
2023-04-07T02:09:11.816Z,1008.33
2023-04-07T02:09:34.510Z,1008.43
2023-04-07T02:09:56.943Z,1008.43
2023-04-07T02:10:32.035Z,1008.43
2023-04-07T02:11:03.927Z,1008.13
2023-04-07T02:11:35.925Z,1008.13
2023-04-07T02:12:11.315Z,1008.53
2023-04-07T02:12:40.175Z,1008.53
2023-04-07T02:13:11.864Z,1008.53
2023-04-07T02:13:34.737Z,1008.23
2023-04-07T02:13:57.023Z,1008.23
2023-04-07T02:14:32.245Z,1008.23
2023-04-07T02:15:04.204Z,1008.33
2023-04-07T02:15:36.033Z,1008.33
2023-04-07T02:16:07.816Z,1008.43
2023-04-07T02:16:40.115Z,1008.43
2023-04-07T02:17:11.883Z,1008.43
2023-04-07T02:17:34.584Z,1008.33
2023-04-07T02:17:56.883Z,1008.33
2023-04-07T02:18:32.354Z,1008.33
2023-04-07T02:19:04.264Z,1008.43
2023-04-07T02:19:34.491Z,1008.43
2023-04-07T02:20:07.881Z,1008.43
2023-04-07T02:20:39.926Z,1008.43
2023-04-07T02:21:14.383Z,1008.23
2023-04-07T02:21:35.297Z,1008.23
2023-04-07T02:21:57.346Z,1008.23
2023-04-07T02:22:35.331Z,1008.23
2023-04-07T02:23:10.327Z,1008.33
2023-04-07T02:23:42.418Z,1008.33
2023-04-07T02:24:08.167Z,1008.43
2023-04-07T02:24:39.932Z,1008.43
2023-04-07T02:25:11.795Z,1008.23
2023-04-07T02:25:38.200Z,1008.33
2023-04-07T02:25:57.591Z,1008.33
2023-04-07T02:26:33.713Z,1008.33
2023-04-07T02:27:03.971Z,1008.23
2023-04-07T02:27:35.807Z,1008.23
2023-04-07T02:28:07.924Z,1008.23
2023-04-07T02:28:39.893Z,1008.23
2023-04-07T02:29:12.127Z,1008.33
2023-04-07T02:29:35.219Z,1008.13
2023-04-07T02:29:57.541Z,1008.13
2023-04-07T02:30:31.936Z,1008.13
2023-04-07T02:31:04.021Z,1008.43
2023-04-07T02:31:35.851Z,1008.43
2023-04-07T02:32:11.424Z,1008.43
2023-04-07T02:32:41.301Z,1008.43
2023-04-07T02:33:12.097Z,1008.23
2023-04-07T02:33:34.958Z,1008.53
2023-04-07T02:33:57.367Z,1008.53
2023-04-07T02:34:31.858Z,1008.53
2023-04-07T02:35:03.813Z,1008.23
2023-04-07T02:35:35.776Z,1008.23
2023-04-07T02:36:14.431Z,1008.23
2023-04-07T02:36:39.834Z,1008.23
2023-04-07T02:37:11.928Z,1008.33
2023-04-07T02:37:35.235Z,1008.53
2023-04-07T02:37:57.685Z,1008.53
2023-04-07T02:38:32.130Z,1008.53
2023-04-07T02:39:04.253Z,1008.33
2023-04-07T02:39:35.800Z,1008.33
2023-04-07T02:40:07.824Z,1008.23
2023-04-07T02:40:42.422Z,1008.23
2023-04-07T02:41:11.808Z,1008.43
2023-04-07T02:41:34.769Z,1008.33
2023-04-07T02:41:57.298Z,1008.33
2023-04-07T02:42:31.924Z,1008.33
2023-04-07T02:43:04.968Z,1008.23
2023-04-07T02:43:35.869Z,1008.23
2023-04-07T02:44:07.877Z,1008.23
2023-04-07T02:44:39.911Z,1008.23
2023-04-07T02:45:11.894Z,1008.23
2023-04-07T02:45:34.791Z,1008.43
2023-04-07T02:45:57.164Z,1008.43
2023-04-07T02:46:32.249Z,1008.43
2023-04-07T02:47:05.418Z,1008.43
2023-04-07T02:47:35.939Z,1008.43
2023-04-07T02:48:08.521Z,1008.43
2023-04-07T02:48:39.785Z,1008.43
2023-04-07T02:49:11.911Z,1008.43
2023-04-07T02:49:34.597Z,1008.33
2023-04-07T02:49:56.911Z,1008.33
2023-04-07T02:50:32.014Z,1008.33
2023-04-07T02:51:05.898Z,1008.33
2023-04-07T02:51:35.753Z,1008.33
2023-04-07T02:52:07.977Z,1008.43
2023-04-07T02:52:39.896Z,1008.43
2023-04-07T02:53:11.957Z,1008.23
2023-04-07T02:53:35.696Z,1008.33
2023-04-07T02:53:58.209Z,1008.33
2023-04-07T02:54:31.804Z,1008.33
2023-04-07T02:55:06.175Z,1008.33
2023-04-07T02:55:35.879Z,1008.33
2023-04-07T02:56:07.859Z,1008.33
2023-04-07T02:56:39.835Z,1008.33
2023-04-07T02:57:11.867Z,1008.23
2023-04-07T02:57:34.556Z,1008.43
2023-04-07T02:57:56.862Z,1008.43
2023-04-07T02:58:31.960Z,1008.43
2023-04-07T02:59:03.897Z,1008.33
2023-04-07T02:59:35.786Z,1008.33
2023-04-07T03:00:40.397Z,1008.23
2023-04-07T03:01:11.902Z,1008.43
2023-04-07T03:01:35.518Z,1008.23
2023-04-07T03:01:57.476Z,1008.23
2023-04-07T03:02:32.104Z,1008.23
2023-04-07T03:03:11.471Z,1008.53
2023-04-07T03:03:36.063Z,1008.53
2023-04-07T03:04:13.730Z,1008.33
2023-04-07T03:04:40.022Z,1008.33
2023-04-07T03:05:11.871Z,1008.23
2023-04-07T03:05:34.629Z,1008.53
2023-04-07T03:05:58.389Z,1008.53
2023-04-07T03:06:31.862Z,1008.53
2023-04-07T03:07:03.804Z,1008.43
2023-04-07T03:07:35.770Z,1008.43
2023-04-07T03:08:13.093Z,1008.23
2023-04-07T03:08:39.974Z,1008.23
2023-04-07T03:09:12.139Z,1008.43
2023-04-07T03:09:35.332Z,1008.53
2023-04-07T03:09:57.729Z,1008.53
2023-04-07T03:10:31.881Z,1008.53
2023-04-07T03:11:03.899Z,1008.43
2023-04-07T03:11:35.967Z,1008.43
2023-04-07T03:12:09.261Z,1008.43
2023-04-07T03:12:39.999Z,1008.43
2023-04-07T03:13:12.023Z,1008.43
2023-04-07T03:13:34.446Z,1008.43
2023-04-07T03:13:56.773Z,1008.43
2023-04-07T03:14:32.370Z,1008.43
2023-04-07T03:15:04.181Z,1008.43
2023-04-07T03:15:36.098Z,1008.43
2023-04-07T03:16:09.786Z,1008.23
2023-04-07T03:16:39.899Z,1008.23
2023-04-07T03:17:11.862Z,1008.23
2023-04-07T03:17:34.818Z,1008.33
2023-04-07T03:17:56.843Z,1008.33
2023-04-07T03:18:31.785Z,1008.33
2023-04-07T03:19:03.998Z,1008.23
2023-04-07T03:19:34.640Z,1008.23
2023-04-07T03:20:10.416Z,1008.43
2023-04-07T03:20:39.742Z,1008.43
2023-04-07T03:21:12.080Z,1008.43
2023-04-07T03:21:34.906Z,1008.53
2023-04-07T03:21:57.199Z,1008.53
2023-04-07T03:22:32.126Z,1008.53
2023-04-07T03:23:05.451Z,1008.33
2023-04-07T03:23:35.981Z,1008.33
2023-04-07T03:24:07.764Z,1008.23
2023-04-07T03:24:39.928Z,1008.23
2023-04-07T03:25:12.028Z,1008.23
2023-04-07T03:25:36.417Z,1008.23
2023-04-07T03:25:59.056Z,1008.23
2023-04-07T03:26:31.885Z,1008.23
2023-04-07T03:27:05.356Z,1008.43
2023-04-07T03:27:36.173Z,1008.43
2023-04-07T03:28:08.016Z,1008.23
2023-04-07T03:28:39.880Z,1008.23
2023-04-07T03:29:12.671Z,1008.33
2023-04-07T03:29:34.548Z,1008.23
2023-04-07T03:29:56.847Z,1008.23
2023-04-07T03:30:33.424Z,1008.23
2023-04-07T03:31:04.047Z,1008.33
2023-04-07T03:31:35.771Z,1008.33
2023-04-07T03:32:07.726Z,1008.23
2023-04-07T03:32:39.851Z,1008.23
2023-04-07T03:33:14.776Z,1008.23
2023-04-07T03:33:34.692Z,1008.23
2023-04-07T03:33:58.593Z,1008.23
2023-04-07T03:34:31.849Z,1008.23
2023-04-07T03:35:04.016Z,1008.43
2023-04-07T03:35:35.884Z,1008.43
2023-04-07T03:36:07.798Z,1008.23
2023-04-07T03:36:39.785Z,1008.23
2023-04-07T03:37:12.598Z,1008.23
2023-04-07T03:37:35.107Z,1008.23
2023-04-07T03:37:57.538Z,1008.23
2023-04-07T03:38:31.797Z,1008.23
2023-04-07T03:39:03.758Z,1008.23
2023-04-07T03:39:35.944Z,1008.23
2023-04-07T03:40:08.003Z,1008.43
2023-04-07T03:40:40.276Z,1008.43
2023-04-07T03:41:13.511Z,1008.33
2023-04-07T03:41:34.616Z,1008.33
2023-04-07T03:41:58.433Z,1008.33
2023-04-07T03:42:31.995Z,1008.33
2023-04-07T03:43:03.775Z,1008.23
2023-04-07T03:43:36.656Z,1008.23
2023-04-07T03:44:07.877Z,1008.23
2023-04-07T03:44:39.842Z,1008.23
2023-04-07T03:45:13.942Z,1008.02
2023-04-07T03:45:34.764Z,1008.33
2023-04-07T03:45:57.057Z,1008.33
2023-04-07T03:46:31.919Z,1008.33
2023-04-07T03:47:03.985Z,1008.33
2023-04-07T03:47:35.865Z,1008.33
2023-04-07T03:48:07.776Z,1008.13
2023-04-07T03:48:45.296Z,1008.13
2023-04-07T03:49:11.711Z,1008.43
2023-04-07T03:49:37.166Z,1008.02
2023-04-07T03:49:58.032Z,1008.02
2023-04-07T03:50:31.866Z,1008.02
2023-04-07T03:51:04.035Z,1008.23
2023-04-07T03:51:35.795Z,1008.23
2023-04-07T03:52:09.377Z,1008.13
2023-04-07T03:52:39.838Z,1008.13
2023-04-07T03:53:11.873Z,1008.33
2023-04-07T03:53:34.537Z,1008.43
2023-04-07T03:53:57.021Z,1008.43
2023-04-07T03:54:34.440Z,1008.43
2023-04-07T03:55:03.867Z,1008.33
2023-04-07T03:55:35.779Z,1008.33
2023-04-07T03:56:08.360Z,1008.33
2023-04-07T03:56:45.263Z,1008.23
2023-04-07T03:57:07.998Z,1008.23
2023-04-07T03:57:40.568Z,1008.33
2023-04-07T03:58:16.517Z,1008.33
2023-04-07T03:58:39.017Z,1008.33
2023-04-07T03:59:01.416Z,1008.33
2023-04-07T03:59:35.928Z,1008.33
2023-04-07T04:00:08.933Z,1008.33
2023-04-07T04:00:42.820Z,1008.33
2023-04-07T04:01:12.319Z,1008.33
2023-04-07T04:01:35.139Z,1008.23
2023-04-07T04:02:02.813Z,1008.23
2023-04-07T04:02:32.766Z,1008.23
2023-04-07T04:03:06.571Z,1008.33
2023-04-07T04:03:37.246Z,1008.33
2023-04-07T04:04:13.726Z,1008.23
2023-04-07T04:04:40.095Z,1008.23
2023-04-07T04:05:12.393Z,1008.53
2023-04-07T04:05:34.635Z,1008.33
2023-04-07T04:06:00.741Z,1008.33
2023-04-07T04:06:33.562Z,1008.43
2023-04-07T04:07:04.145Z,1008.43
2023-04-07T04:07:35.777Z,1008.43
2023-04-07T04:08:09.027Z,1008.33
2023-04-07T04:08:40.538Z,1008.33
2023-04-07T04:09:12.065Z,1008.33
2023-04-07T04:09:34.773Z,1008.53
2023-04-07T04:09:58.040Z,1008.53
2023-04-07T04:10:31.957Z,1008.53
2023-04-07T04:11:04.096Z,1008.23
2023-04-07T04:11:35.981Z,1008.23
2023-04-07T04:12:08.253Z,1008.23
2023-04-07T04:12:40.259Z,1008.23
2023-04-07T04:13:11.953Z,1008.13
2023-04-07T04:13:34.733Z,1008.33
2023-04-07T04:13:57.670Z,1008.33
2023-04-07T04:14:32.106Z,1008.33
2023-04-07T04:15:04.659Z,1008.33
2023-04-07T04:15:36.507Z,1008.33
2023-04-07T04:16:08.623Z,1008.53
2023-04-07T04:16:40.381Z,1008.53
2023-04-07T04:17:11.889Z,1008.43
2023-04-07T04:17:35.087Z,1008.33
2023-04-07T04:17:57.246Z,1008.33
2023-04-07T04:18:32.350Z,1008.33
2023-04-07T04:19:04.183Z,1008.23
2023-04-07T04:19:37.895Z,1008.23
2023-04-07T04:20:08.245Z,1008.43
2023-04-07T04:20:40.936Z,1008.43
2023-04-07T04:21:13.069Z,1008.33
2023-04-07T04:21:35.956Z,1008.43
2023-04-07T04:21:58.403Z,1008.43
2023-04-07T04:22:32.110Z,1008.43
2023-04-07T04:23:04.393Z,1008.53
2023-04-07T04:23:36.096Z,1008.53
2023-04-07T04:24:09.233Z,1008.43
2023-04-07T04:24:43.207Z,1008.43
2023-04-07T04:25:06.024Z,1008.43
2023-04-07T04:25:40.917Z,1008.43
2023-04-07T04:26:15.855Z,1008.43
2023-04-07T04:26:38.663Z,1008.33
2023-04-07T04:27:00.954Z,1008.33
2023-04-07T04:27:35.790Z,1008.33
2023-04-07T04:28:08.047Z,1008.53
2023-04-07T04:28:39.831Z,1008.53
2023-04-07T04:29:11.702Z,1008.33
2023-04-07T04:29:34.606Z,1008.33
2023-04-07T04:29:56.934Z,1008.33
2023-04-07T04:30:31.951Z,1008.33
2023-04-07T04:31:03.663Z,1008.33
2023-04-07T04:31:36.032Z,1008.33
2023-04-07T04:32:07.826Z,1008.53
2023-04-07T04:32:39.851Z,1008.53
2023-04-07T04:33:11.674Z,1008.53
2023-04-07T04:33:34.766Z,1008.23
2023-04-07T04:33:57.231Z,1008.23
2023-04-07T04:34:31.703Z,1008.23
2023-04-07T04:34:57.745Z,1008.53
2023-04-07T04:35:36.560Z,1008.53
2023-04-07T04:36:08.540Z,1008.53
2023-04-07T04:36:40.338Z,1008.53
2023-04-07T04:37:11.999Z,1008.53
2023-04-07T04:37:34.748Z,1008.43
2023-04-07T04:37:57.048Z,1008.43
2023-04-07T04:38:31.830Z,1008.43
2023-04-07T04:39:04.696Z,1008.53
2023-04-07T04:39:36.293Z,1008.53
2023-04-07T04:40:08.077Z,1008.53
2023-04-07T04:40:40.589Z,1008.53
2023-04-07T04:41:12.600Z,1008.53
2023-04-07T04:41:35.379Z,1008.53
2023-04-07T04:41:58.855Z,1008.53
2023-04-07T04:42:31.920Z,1008.53
2023-04-07T04:43:04.105Z,1008.43
2023-04-07T04:43:36.327Z,1008.43
2023-04-07T04:44:08.393Z,1008.43
2023-04-07T04:44:39.905Z,1008.43
2023-04-07T04:45:12.062Z,1008.53
2023-04-07T04:45:34.674Z,1008.74
2023-04-07T04:45:57.093Z,1008.74
2023-04-07T04:46:31.996Z,1008.74
2023-04-07T04:47:04.042Z,1008.63
2023-04-07T04:47:36.603Z,1008.63
2023-04-07T04:48:08.145Z,1008.74
2023-04-07T04:48:39.911Z,1008.74
2023-04-07T04:49:11.683Z,1008.63
2023-04-07T04:49:34.387Z,1008.53
2023-04-07T04:49:56.885Z,1008.53
2023-04-07T04:50:32.769Z,1008.53
2023-04-07T04:51:04.341Z,1008.43
2023-04-07T04:51:35.713Z,1008.43
2023-04-07T04:52:07.961Z,1008.43
2023-04-07T04:52:41.021Z,1008.43
2023-04-07T04:53:12.942Z,1008.53
2023-04-07T04:53:35.623Z,1008.63
2023-04-07T04:53:57.896Z,1008.63
2023-04-07T04:54:31.942Z,1008.63
2023-04-07T04:55:03.928Z,1008.43
2023-04-07T04:55:37.078Z,1008.43
2023-04-07T04:56:08.570Z,1008.74
2023-04-07T04:56:40.361Z,1008.74
2023-04-07T04:57:11.838Z,1008.63
2023-04-07T04:57:34.543Z,1008.63
2023-04-07T04:57:57.281Z,1008.63
2023-04-07T04:58:32.153Z,1008.63
2023-04-07T04:59:03.826Z,1008.63
2023-04-07T04:59:35.749Z,1008.63
2023-04-07T05:00:08.528Z,1008.63
2023-04-07T05:00:40.210Z,1008.63
2023-04-07T05:01:12.313Z,1008.53
2023-04-07T05:01:34.834Z,1008.63
2023-04-07T05:01:57.290Z,1008.63
2023-04-07T05:02:32.477Z,1008.63
2023-04-07T05:03:05.250Z,1008.53
2023-04-07T05:03:36.856Z,1008.53
2023-04-07T05:04:11.520Z,1008.43
2023-04-07T05:04:40.011Z,1008.43
2023-04-07T05:05:12.035Z,1008.63
2023-04-07T05:05:34.625Z,1008.74
2023-04-07T05:05:57.590Z,1008.74
2023-04-07T05:06:31.896Z,1008.74
2023-04-07T05:07:04.358Z,1008.43
2023-04-07T05:07:36.672Z,1008.43
2023-04-07T05:08:08.546Z,1008.74
2023-04-07T05:08:40.004Z,1008.74
2023-04-07T05:09:12.489Z,1008.84
2023-04-07T05:09:34.914Z,1008.63
2023-04-07T05:09:57.333Z,1008.63
2023-04-07T05:10:31.940Z,1008.63
2023-04-07T05:11:03.936Z,1008.63
2023-04-07T05:11:35.990Z,1008.63
2023-04-07T05:12:08.090Z,1008.53
2023-04-07T05:12:40.927Z,1008.53
2023-04-07T05:13:12.040Z,1008.63
2023-04-07T05:13:34.519Z,1008.63
2023-04-07T05:13:56.790Z,1008.63
2023-04-07T05:14:32.067Z,1008.63
2023-04-07T05:15:05.150Z,1008.63
2023-04-07T05:15:36.257Z,1008.63
2023-04-07T05:16:08.643Z,1008.53
2023-04-07T05:16:40.317Z,1008.53
2023-04-07T05:17:12.443Z,1008.53
2023-04-07T05:17:35.103Z,1008.84
2023-04-07T05:17:57.658Z,1008.84
2023-04-07T05:18:32.588Z,1008.84
2023-04-07T05:19:03.856Z,1008.74
2023-04-07T05:19:35.382Z,1008.74
2023-04-07T05:20:07.930Z,1008.94
2023-04-07T05:20:39.908Z,1008.94
2023-04-07T05:21:12.294Z,1008.63
2023-04-07T05:21:35.018Z,1008.84
2023-04-07T05:21:57.270Z,1008.84
2023-04-07T05:22:32.283Z,1008.84
2023-04-07T05:23:05.561Z,1008.94
2023-04-07T05:23:36.310Z,1008.94
2023-04-07T05:24:09.620Z,1008.63
2023-04-07T05:24:39.956Z,1008.63
2023-04-07T05:25:11.753Z,1008.74
2023-04-07T05:25:37.086Z,1008.84
2023-04-07T05:25:57.566Z,1008.84
2023-04-07T05:26:32.397Z,1008.84
2023-04-07T05:27:07.845Z,1008.94
2023-04-07T05:27:30.193Z,1008.94
2023-04-07T05:28:08.292Z,1009.04
2023-04-07T05:28:41.361Z,1009.04
2023-04-07T05:29:11.897Z,1008.94
2023-04-07T05:29:36.142Z,1008.84
2023-04-07T05:29:57.221Z,1008.84
2023-04-07T05:30:32.263Z,1008.84
2023-04-07T05:31:20.077Z,1008.84
2023-04-07T05:31:43.384Z,1008.84
2023-04-07T05:32:05.691Z,1008.84
2023-04-07T05:32:40.053Z,1008.84
2023-04-07T05:33:12.477Z,1008.84
2023-04-07T05:33:34.962Z,1008.94
2023-04-07T05:33:57.107Z,1008.94
2023-04-07T05:34:32.396Z,1008.94
2023-04-07T05:35:03.797Z,1008.94
2023-04-07T05:35:35.908Z,1008.94
2023-04-07T05:36:08.059Z,1009.04
2023-04-07T05:36:40.073Z,1009.04
2023-04-07T05:37:13.295Z,1009.11
2023-04-07T05:37:36.432Z,1008.84
2023-04-07T05:37:58.704Z,1008.84
2023-04-07T05:38:31.871Z,1008.84
2023-04-07T05:39:04.144Z,1008.94
2023-04-07T05:39:35.913Z,1008.94
2023-04-07T05:40:07.759Z,1009.11
2023-04-07T05:40:39.881Z,1009.11
2023-04-07T05:41:12.032Z,1009.04
2023-04-07T05:41:34.630Z,1009.04
2023-04-07T05:41:57.049Z,1009.04
2023-04-07T05:42:32.097Z,1009.04
2023-04-07T05:43:03.895Z,1008.84
2023-04-07T05:43:35.897Z,1008.84
2023-04-07T05:44:07.822Z,1008.94
2023-04-07T05:44:40.070Z,1008.94
2023-04-07T05:45:13.332Z,1009.11
2023-04-07T05:45:34.723Z,1008.84
2023-04-07T05:45:57.055Z,1008.84
2023-04-07T05:46:31.904Z,1008.84
2023-04-07T05:47:04.059Z,1009.04
2023-04-07T05:47:35.960Z,1009.04
2023-04-07T05:48:07.973Z,1009.11
2023-04-07T05:48:39.767Z,1009.11
2023-04-07T05:49:19.527Z,1009.11
2023-04-07T05:49:34.712Z,1009.04
2023-04-07T05:49:57.044Z,1009.04
2023-04-07T05:50:32.337Z,1009.04
2023-04-07T05:51:03.721Z,1009.21
2023-04-07T05:51:35.879Z,1009.21
2023-04-07T05:52:07.678Z,1008.94
2023-04-07T05:52:39.891Z,1008.94
2023-04-07T05:53:11.848Z,1009.04
2023-04-07T05:53:35.276Z,1009.21
2023-04-07T05:53:57.419Z,1009.21
2023-04-07T05:54:35.292Z,1009.21
2023-04-07T05:55:03.943Z,1009.11
2023-04-07T05:55:35.803Z,1009.11
2023-04-07T05:56:07.849Z,1008.84
2023-04-07T05:56:39.754Z,1008.84
2023-04-07T05:57:11.849Z,1009.11
2023-04-07T05:57:34.502Z,1009.21
2023-04-07T05:57:56.897Z,1009.21
2023-04-07T05:58:33.403Z,1009.21
2023-04-07T05:59:03.775Z,1009.21
2023-04-07T05:59:35.785Z,1009.21
2023-04-07T06:00:09.192Z,1009.11
2023-04-07T06:00:40.264Z,1009.11
2023-04-07T06:01:11.836Z,1009.04
2023-04-07T06:01:35.759Z,1008.94
2023-04-07T06:01:58.181Z,1008.94
2023-04-07T06:02:34.347Z,1008.94
2023-04-07T06:03:04.308Z,1009.11